createdAt,value
2019-04-04T00:02:05.104Z,25.60
2019-04-04T00:04:38.522Z,26.07
2019-04-04T00:07:12.503Z,25.32
2019-04-04T00:09:46.724Z,25.88
2019-04-04T00:12:20.453Z,25.57
2019-04-04T00:14:54.127Z,25.10
2019-04-04T00:17:27.488Z,23.52
2019-04-04T00:20:01.479Z,23.42
2019-04-04T00:22:35.827Z,24.40
2019-04-04T00:25:10.389Z,26.15
2019-04-04T00:27:43.942Z,25.12
2019-04-04T00:30:18.566Z,25.52
2019-04-04T00:32:52.783Z,25.45
2019-04-04T00:35:27.023Z,25.88
2019-04-04T00:38:00.234Z,27.48
2019-04-04T00:40:33.553Z,25.17
2019-04-04T00:43:06.275Z,27.20
2019-04-04T00:45:40.217Z,27.17
2019-04-04T00:48:13.715Z,26.55
2019-04-04T00:50:47.448Z,26.12
2019-04-04T00:53:20.920Z,26.73
2019-04-04T00:55:53.665Z,27.45
2019-04-04T00:58:26.999Z,26.55
2019-04-04T01:01:00.014Z,26.90
2019-04-04T01:03:33.823Z,27.27
2019-04-04T01:06:07.016Z,25.32
2019-04-04T01:08:40.478Z,27.37
2019-04-04T01:11:13.703Z,27.32
2019-04-04T01:13:46.970Z,25.85
2019-04-04T01:16:20.307Z,25.62
2019-04-04T01:18:54.590Z,25.10
2019-04-04T01:21:27.908Z,25.52
2019-04-04T01:24:01.683Z,25.05
2019-04-04T01:26:35.819Z,25.20
2019-04-04T01:29:11.041Z,24.55
2019-04-04T01:31:46.028Z,24.63
2019-04-04T01:34:21.434Z,23.55
2019-04-04T01:36:56.557Z,22.65
2019-04-04T01:39:31.217Z,24.18
2019-04-04T01:42:07.278Z,24.63
2019-04-04T01:44:42.288Z,24.25
2019-04-04T01:47:17.026Z,24.10
2019-04-04T01:49:52.435Z,23.42
2019-04-04T01:52:28.661Z,23.52
2019-04-04T01:55:03.405Z,24.12
2019-04-04T01:57:38.925Z,23.98
2019-04-04T02:00:15.135Z,24.57
2019-04-04T02:02:51.903Z,23.42
2019-04-04T02:05:26.823Z,24.47
2019-04-04T02:08:00.995Z,25.17
2019-04-04T02:10:35.725Z,24.40
2019-04-04T02:13:10.431Z,24.67
2019-04-04T02:15:45.326Z,25.75
2019-04-04T02:18:19.350Z,24.63
2019-04-04T02:20:53.166Z,24.57
2019-04-04T02:23:27.213Z,23.05
2019-04-04T02:26:04.849Z,23.38
2019-04-04T02:28:37.977Z,24.95
2019-04-04T02:31:12.151Z,24.67
2019-04-04T02:33:45.559Z,23.32
2019-04-04T02:36:19.339Z,22.93
2019-04-04T02:39:09.416Z,22.62
2019-04-04T02:41:47.527Z,23.77
2019-04-04T02:44:18.981Z,23.70
2019-04-04T02:46:52.195Z,23.47
2019-04-04T02:49:29.214Z,22.40
2019-04-04T02:52:01.314Z,23.10
2019-04-04T02:54:35.299Z,23.42
2019-04-04T02:57:09.626Z,23.47
2019-04-04T02:59:42.968Z,23.35
2019-04-04T03:02:17.050Z,22.48
2019-04-04T03:04:50.504Z,22.50
2019-04-04T03:07:24.637Z,22.00
2019-04-04T03:09:58.292Z,22.70
2019-04-04T03:12:32.146Z,23.07
2019-04-04T03:15:06.304Z,22.32
2019-04-04T03:17:41.629Z,23.25
2019-04-04T03:20:17.314Z,21.95
2019-04-04T03:22:50.412Z,23.02
2019-04-04T03:25:23.705Z,24.00
2019-04-04T03:27:58.244Z,22.77
2019-04-04T03:30:33.630Z,22.87
2019-04-04T03:33:07.925Z,24.23
2019-04-04T03:35:42.331Z,23.22
2019-04-04T03:38:15.627Z,21.70
2019-04-04T03:40:48.441Z,22.45
2019-04-04T03:43:22.223Z,22.75
2019-04-04T03:46:00.343Z,23.12
2019-04-04T03:48:31.923Z,22.45
2019-04-04T03:51:05.527Z,22.58
2019-04-04T03:53:41.806Z,22.95
2019-04-04T03:56:16.102Z,21.80
2019-04-04T03:58:50.211Z,22.25
2019-04-04T04:01:24.807Z,22.25
2019-04-04T04:03:58.410Z,22.42
2019-04-04T04:06:32.558Z,22.25
2019-04-04T04:09:07.385Z,21.00
2019-04-04T04:11:41.573Z,22.73
2019-04-04T04:14:15.547Z,21.17
2019-04-04T04:16:49.598Z,21.80
2019-04-04T04:19:24.435Z,21.55
2019-04-04T04:21:59.098Z,21.02
2019-04-04T04:24:32.901Z,22.10
2019-04-04T04:27:06.564Z,20.88
2019-04-04T04:29:39.854Z,20.82
2019-04-04T04:32:13.187Z,21.15
2019-04-04T04:34:46.956Z,21.82
2019-04-04T04:37:21.113Z,22.05
2019-04-04T04:39:55.281Z,22.20
2019-04-04T04:42:29.533Z,22.15
2019-04-04T04:45:03.650Z,20.85
2019-04-04T04:47:37.426Z,22.00
2019-04-04T04:50:11.434Z,21.17
2019-04-04T04:52:46.746Z,22.07
2019-04-04T04:55:20.304Z,21.42
2019-04-04T04:57:56.270Z,20.85
2019-04-04T05:00:30.175Z,22.20
2019-04-04T05:03:03.875Z,22.48
2019-04-04T05:05:38.065Z,23.02
2019-04-04T05:08:11.294Z,22.58
2019-04-04T05:10:45.916Z,23.27
2019-04-04T05:13:20.707Z,22.70
2019-04-04T05:15:55.117Z,24.10
2019-04-04T05:18:49.419Z,22.42
2019-04-04T05:21:25.572Z,22.50
2019-04-04T05:23:58.508Z,23.05
2019-04-04T05:26:34.234Z,21.87
2019-04-04T05:29:07.621Z,22.77
2019-04-04T05:31:41.349Z,22.85
2019-04-04T05:34:15.667Z,22.95
2019-04-04T05:36:49.749Z,22.52
2019-04-04T05:39:23.453Z,22.80
2019-04-04T05:41:58.090Z,21.50
2019-04-04T05:44:34.309Z,22.00
2019-04-04T05:47:07.771Z,21.60
2019-04-04T05:49:42.494Z,21.82
2019-04-04T05:52:16.325Z,21.27
2019-04-04T05:54:49.984Z,21.77
2019-04-04T05:57:23.257Z,21.68
2019-04-04T05:59:57.201Z,20.52
2019-04-04T06:02:30.805Z,20.92
2019-04-04T06:05:04.621Z,22.35
2019-04-04T06:07:37.448Z,21.27
2019-04-04T06:10:12.212Z,21.20
2019-04-04T06:12:45.735Z,20.48
2019-04-04T06:15:18.947Z,21.25
2019-04-04T06:17:52.945Z,21.05
2019-04-04T06:20:27.073Z,20.95
2019-04-04T06:23:01.240Z,21.45
2019-04-04T06:25:35.913Z,20.75
2019-04-04T06:28:12.016Z,22.32
2019-04-04T06:30:45.497Z,20.23
2019-04-04T06:33:19.228Z,20.00
2019-04-04T06:35:52.528Z,20.85
2019-04-04T06:38:26.774Z,18.52
2019-04-04T06:41:00.868Z,19.00
2019-04-04T06:43:35.893Z,19.00
2019-04-04T06:46:09.754Z,17.20
2019-04-04T06:48:43.940Z,18.80
2019-04-04T06:51:17.559Z,18.10
2019-04-04T06:53:53.699Z,18.07
2019-04-04T06:56:26.781Z,17.12
2019-04-04T06:59:00.573Z,18.00
2019-04-04T07:01:34.302Z,15.98
2019-04-04T07:04:07.910Z,15.95
2019-04-04T07:06:42.488Z,16.73
2019-04-04T07:09:18.990Z,15.40
2019-04-04T07:11:52.500Z,14.43
2019-04-04T07:14:30.025Z,14.63
2019-04-04T07:17:01.864Z,14.35
2019-04-04T07:19:34.472Z,13.65
2019-04-04T07:22:08.099Z,13.65
2019-04-04T07:24:41.057Z,13.40
2019-04-04T07:27:16.200Z,13.15
2019-04-04T07:29:49.861Z,12.95
2019-04-04T07:32:22.414Z,12.95
2019-04-04T07:34:56.052Z,13.55
2019-04-04T07:37:30.797Z,12.75
2019-04-04T07:40:04.534Z,12.63
2019-04-04T07:42:40.050Z,12.88
2019-04-04T07:45:14.222Z,12.55
2019-04-04T07:47:47.482Z,13.18
2019-04-04T07:50:20.809Z,13.10
2019-04-04T07:52:52.803Z,13.05
2019-04-04T07:55:24.837Z,13.13
2019-04-04T07:57:58.296Z,13.22
2019-04-04T08:00:32.422Z,13.43
2019-04-04T08:03:05.663Z,13.00
2019-04-04T08:05:39.458Z,12.50
2019-04-04T08:08:12.308Z,12.85
2019-04-04T08:10:45.664Z,12.58
2019-04-04T08:13:17.985Z,13.00
2019-04-04T08:15:51.754Z,12.28
2019-04-04T08:18:24.230Z,12.55
2019-04-04T08:20:57.599Z,12.30
2019-04-04T08:23:30.349Z,11.93
2019-04-04T08:26:03.230Z,11.38
2019-04-04T08:28:36.868Z,11.45
2019-04-04T08:31:10.982Z,11.97
2019-04-04T08:33:44.679Z,12.28
2019-04-04T08:36:18.663Z,11.03
2019-04-04T08:38:52.701Z,12.15
2019-04-04T08:41:26.384Z,12.70
2019-04-04T08:44:00.591Z,12.25
2019-04-04T08:46:33.733Z,12.37
2019-04-04T08:49:06.989Z,11.28
2019-04-04T08:51:41.118Z,12.53
2019-04-04T08:54:15.306Z,11.73
2019-04-04T08:56:49.353Z,10.80
2019-04-04T08:59:23.561Z,10.20
2019-04-04T09:01:57.451Z,11.05
2019-04-04T09:04:31.560Z,11.57
2019-04-04T09:07:05.187Z,11.57
2019-04-04T09:09:39.389Z,11.30
2019-04-04T09:12:13.183Z,10.82
2019-04-04T09:14:46.814Z,11.48
2019-04-04T09:17:20.446Z,11.53
2019-04-04T09:19:54.530Z,10.90
2019-04-04T09:22:27.868Z,11.30
2019-04-04T09:25:01.567Z,12.05
2019-04-04T09:27:36.047Z,11.57
2019-04-04T09:30:10.156Z,11.68
2019-04-04T09:32:44.278Z,11.57
2019-04-04T09:35:18.698Z,11.83
2019-04-04T09:37:52.683Z,11.20
2019-04-04T09:40:26.390Z,11.35
2019-04-04T09:43:00.126Z,11.83
2019-04-04T09:45:35.522Z,11.73
2019-04-04T09:48:09.870Z,11.33
2019-04-04T09:50:48.886Z,11.60
2019-04-04T09:53:22.513Z,11.03
2019-04-04T09:55:55.289Z,11.73
2019-04-04T09:58:28.477Z,11.40
2019-04-04T10:01:02.194Z,11.10
2019-04-04T10:03:36.305Z,11.95
2019-04-04T10:06:10.519Z,10.98
2019-04-04T10:08:43.612Z,10.78
2019-04-04T10:11:17.607Z,11.35
2019-04-04T10:13:50.078Z,11.25
2019-04-04T10:16:23.032Z,11.83
2019-04-04T10:18:57.171Z,11.40
2019-04-04T10:21:33.432Z,10.88
2019-04-04T10:24:09.438Z,10.50
2019-04-04T10:26:41.861Z,11.28
2019-04-04T10:29:13.823Z,11.35
2019-04-04T10:31:46.772Z,10.65
2019-04-04T10:34:18.781Z,11.78
2019-04-04T10:36:51.132Z,11.18
2019-04-04T10:39:29.415Z,11.33
2019-04-04T10:41:58.758Z,11.43
2019-04-04T10:44:30.860Z,10.38
2019-04-04T10:47:04.638Z,10.40
2019-04-04T10:49:37.659Z,10.55
2019-04-04T10:52:10.603Z,10.28
2019-04-04T10:54:42.991Z,10.45
2019-04-04T10:57:16.751Z,9.75
2019-04-04T10:59:50.190Z,10.58
2019-04-04T11:02:23.514Z,10.15
2019-04-04T11:04:55.965Z,10.98
2019-04-04T11:07:29.214Z,10.05
2019-04-04T11:10:01.653Z,10.13
2019-04-04T11:12:34.566Z,8.83
2019-04-04T11:15:07.299Z,8.83
2019-04-04T11:17:40.083Z,9.65
2019-04-04T11:20:12.914Z,10.13
2019-04-04T11:22:45.436Z,9.65
2019-04-04T11:25:17.474Z,9.68
2019-04-04T11:27:50.635Z,9.40
2019-04-04T11:30:23.891Z,9.03
2019-04-04T11:32:56.755Z,9.48
2019-04-04T11:35:29.657Z,9.45
2019-04-04T11:38:02.546Z,8.80
2019-04-04T11:40:35.483Z,9.23
2019-04-04T11:43:07.801Z,8.38
2019-04-04T11:45:40.742Z,8.65
2019-04-04T11:48:14.117Z,9.63
2019-04-04T11:50:46.969Z,9.25
2019-04-04T11:53:20.734Z,9.10
2019-04-04T11:55:54.160Z,9.30
2019-04-04T11:58:28.826Z,8.38
2019-04-04T12:01:02.820Z,9.43
2019-04-04T12:03:34.769Z,8.68
2019-04-04T12:06:07.591Z,8.55
2019-04-04T12:08:40.453Z,9.40
2019-04-04T12:11:13.876Z,8.88
2019-04-04T12:13:46.373Z,8.85
2019-04-04T12:16:19.795Z,9.50
2019-04-04T12:18:52.298Z,9.23
2019-04-04T12:21:25.613Z,8.13
2019-04-04T12:23:59.070Z,9.20
2019-04-04T12:26:31.350Z,8.88
2019-04-04T12:29:03.781Z,8.05
2019-04-04T12:31:36.645Z,8.48
2019-04-04T12:34:09.062Z,8.43
2019-04-04T12:36:42.075Z,8.23
2019-04-04T12:39:14.924Z,9.25
2019-04-04T12:41:47.873Z,8.88
2019-04-04T12:44:21.267Z,9.10
2019-04-04T12:46:53.788Z,8.53
2019-04-04T12:49:26.192Z,7.47
2019-04-04T12:51:59.205Z,8.03
2019-04-04T12:54:32.455Z,8.05
2019-04-04T12:57:04.944Z,8.20
2019-04-04T12:59:38.295Z,8.13
2019-04-04T13:02:11.630Z,8.70
2019-04-04T13:04:45.345Z,8.23
2019-04-04T13:07:17.730Z,7.85
2019-04-04T13:09:50.569Z,8.25
2019-04-04T13:12:23.819Z,8.48
2019-04-04T13:14:56.130Z,8.48
2019-04-04T13:17:29.042Z,8.38
2019-04-04T13:20:01.935Z,8.13
2019-04-04T13:22:35.563Z,7.97
2019-04-04T13:25:09.413Z,7.47
2019-04-04T13:27:41.807Z,7.92
2019-04-04T13:30:15.081Z,7.58
2019-04-04T13:32:48.542Z,7.97
2019-04-04T13:35:22.353Z,8.18
2019-04-04T13:37:54.748Z,8.23
2019-04-04T13:40:27.825Z,9.05
2019-04-04T13:42:59.805Z,8.55
2019-04-04T13:45:32.148Z,8.73
2019-04-04T13:48:05.292Z,7.90
2019-04-04T13:50:38.451Z,8.20
2019-04-04T13:53:12.538Z,7.65
2019-04-04T13:55:45.700Z,7.95
2019-04-04T13:58:21.888Z,7.97
2019-04-04T14:00:53.299Z,8.33
2019-04-04T14:03:27.331Z,8.93
2019-04-04T14:06:01.947Z,9.28
2019-04-04T14:08:39.252Z,9.83
2019-04-04T14:11:11.613Z,9.88
2019-04-04T14:13:44.405Z,11.15
2019-04-04T14:16:18.335Z,9.33
2019-04-04T14:18:51.906Z,7.55
2019-04-04T14:21:25.487Z,8.28
2019-04-04T14:24:12.087Z,9.45
2019-04-04T14:26:34.761Z,9.15
2019-04-04T14:29:08.777Z,9.28
2019-04-04T14:31:42.879Z,10.82
2019-04-04T14:34:16.490Z,10.08
2019-04-04T14:36:50.476Z,10.58
2019-04-04T14:39:24.507Z,9.03
2019-04-04T14:41:57.927Z,8.53
2019-04-04T14:44:31.917Z,8.28
2019-04-04T14:47:05.519Z,8.63
2019-04-04T14:49:39.692Z,8.25
2019-04-04T14:52:13.096Z,8.68
2019-04-04T14:54:47.019Z,8.88
2019-04-04T14:57:20.287Z,8.70
2019-04-04T14:59:53.662Z,9.33
2019-04-04T15:02:26.905Z,8.85
2019-04-04T15:05:00.670Z,8.90
2019-04-04T15:07:33.959Z,10.05
2019-04-04T15:10:08.684Z,11.08
2019-04-04T15:12:42.390Z,10.08
2019-04-04T15:15:16.610Z,14.30
2019-04-04T15:17:49.900Z,14.95
2019-04-04T15:20:24.227Z,11.65
2019-04-04T15:22:57.880Z,12.47
2019-04-04T15:25:31.390Z,19.30
2019-04-04T15:28:05.012Z,20.05
2019-04-04T15:30:38.211Z,14.03
2019-04-04T15:33:12.528Z,18.80
2019-04-04T15:35:45.786Z,16.42
2019-04-04T15:38:18.691Z,14.78
2019-04-04T15:40:51.943Z,16.45
2019-04-04T15:43:25.101Z,16.80
2019-04-04T15:45:57.579Z,15.55
2019-04-04T15:48:30.310Z,12.33
2019-04-04T15:51:04.241Z,11.28
2019-04-04T15:53:37.970Z,9.95
2019-04-04T15:56:12.150Z,8.65
2019-04-04T15:58:46.381Z,8.40
2019-04-04T16:01:20.418Z,8.80
2019-04-04T16:03:54.354Z,9.05
2019-04-04T16:06:28.550Z,10.65
2019-04-04T16:09:02.647Z,13.68
2019-04-04T16:11:48.520Z,11.45
2019-04-04T16:14:11.630Z,9.40
2019-04-04T16:16:45.806Z,12.03
2019-04-04T16:19:19.487Z,13.65
2019-04-04T16:21:53.605Z,14.03
2019-04-04T16:24:27.638Z,13.03
2019-04-04T16:27:01.337Z,12.63
2019-04-04T16:29:35.360Z,13.30
2019-04-04T16:32:08.521Z,18.10
2019-04-04T16:34:42.853Z,15.15
2019-04-04T16:37:16.419Z,14.70
2019-04-04T16:39:50.580Z,20.35
2019-04-04T16:42:24.204Z,23.07
2019-04-04T16:44:57.992Z,28.30
2019-04-04T16:47:32.121Z,26.97
2019-04-04T16:50:06.008Z,26.80
2019-04-04T16:52:39.992Z,21.97
2019-04-04T16:55:13.393Z,20.95
2019-04-04T16:57:47.066Z,19.15
2019-04-04T17:00:23.161Z,17.45
2019-04-04T17:02:55.965Z,15.88
2019-04-04T17:05:30.045Z,15.25
2019-04-04T17:08:04.201Z,17.00
2019-04-04T17:10:38.109Z,18.85
2019-04-04T17:13:11.380Z,18.52
2019-04-04T17:15:46.131Z,21.70
2019-04-04T17:18:20.211Z,25.57
2019-04-04T17:20:54.654Z,27.22
2019-04-04T17:23:28.777Z,33.58
2019-04-04T17:26:02.911Z,39.48
2019-04-04T17:28:36.693Z,41.23
2019-04-04T17:31:10.304Z,42.45
2019-04-04T17:33:44.637Z,43.87
2019-04-04T17:36:21.289Z,40.50
2019-04-04T17:38:55.046Z,34.63
2019-04-04T17:41:29.213Z,31.05
2019-04-04T17:44:03.422Z,28.10
2019-04-04T17:46:37.040Z,23.55
2019-04-04T17:49:10.594Z,23.27
2019-04-04T17:51:44.715Z,30.48
2019-04-04T17:54:17.562Z,35.95
2019-04-04T17:56:50.441Z,42.85
2019-04-04T17:59:22.886Z,41.18
2019-04-04T18:01:55.778Z,36.70
2019-04-04T18:04:28.683Z,32.20
2019-04-04T18:07:01.614Z,27.67
2019-04-04T18:09:34.441Z,25.82
2019-04-04T18:12:06.861Z,21.68
2019-04-04T18:14:39.638Z,21.25
2019-04-04T18:17:12.144Z,20.68
2019-04-04T18:19:44.529Z,20.27
2019-04-04T18:22:20.645Z,26.95
2019-04-04T18:24:51.766Z,33.25
2019-04-04T18:27:23.782Z,35.38
2019-04-04T18:29:56.244Z,37.20
2019-04-04T18:32:28.213Z,36.80
2019-04-04T18:35:01.366Z,26.65
2019-04-04T18:37:35.552Z,20.82
2019-04-04T18:40:09.192Z,21.73
2019-04-04T18:42:52.720Z,24.60
2019-04-04T18:45:16.015Z,30.65
2019-04-04T18:47:49.468Z,22.93
2019-04-04T18:50:22.022Z,21.87
2019-04-04T18:52:56.084Z,21.93
2019-04-04T18:55:30.319Z,22.02
2019-04-04T18:58:05.017Z,21.57
2019-04-04T19:00:37.628Z,21.40
2019-04-04T19:03:11.020Z,20.60
2019-04-04T19:05:43.881Z,20.80
2019-04-04T19:08:16.328Z,25.08
2019-04-04T19:10:49.374Z,25.95
2019-04-04T19:13:21.678Z,23.47
2019-04-04T19:15:54.520Z,19.87
2019-04-04T19:18:27.719Z,18.40
2019-04-04T19:21:00.161Z,20.48
2019-04-04T19:23:33.096Z,24.80
2019-04-04T19:26:06.205Z,30.25
2019-04-04T19:28:39.438Z,31.20
2019-04-04T19:31:12.750Z,33.83
2019-04-04T19:33:46.001Z,36.28
2019-04-04T19:36:18.005Z,35.98
2019-04-04T19:38:51.289Z,34.25
2019-04-04T19:41:23.753Z,35.17
2019-04-04T19:43:56.655Z,30.62
2019-04-04T19:46:36.899Z,29.92
2019-04-04T19:49:03.937Z,29.27
2019-04-04T19:51:35.878Z,28.80
2019-04-04T19:54:07.851Z,27.70
2019-04-04T19:56:39.915Z,23.85
2019-04-04T19:59:11.917Z,21.45
2019-04-04T20:01:44.276Z,17.90
2019-04-04T20:04:16.186Z,18.75
2019-04-04T20:06:49.251Z,19.50
2019-04-04T20:09:22.137Z,20.12
2019-04-04T20:11:55.049Z,22.17
2019-04-04T20:14:29.100Z,22.42
2019-04-04T20:17:01.721Z,21.65
2019-04-04T20:19:34.597Z,23.15
2019-04-04T20:22:08.434Z,22.93
2019-04-04T20:24:40.843Z,20.82
2019-04-04T20:27:14.446Z,21.57
2019-04-04T20:29:47.328Z,21.50
2019-04-04T20:32:19.818Z,19.32
2019-04-04T20:34:52.114Z,18.60
2019-04-04T20:37:24.588Z,17.95
2019-04-04T20:39:57.482Z,17.57
2019-04-04T20:42:29.792Z,15.80
2019-04-04T20:45:02.607Z,16.90
2019-04-04T20:47:35.433Z,15.75
2019-04-04T20:50:08.013Z,16.97
2019-04-04T20:52:40.411Z,17.35
2019-04-04T20:55:12.970Z,16.82
2019-04-04T20:57:46.358Z,17.32
2019-04-04T21:00:22.017Z,15.53
2019-04-04T21:02:56.003Z,16.87
2019-04-04T21:05:29.391Z,16.27
2019-04-04T21:08:02.811Z,18.45
2019-04-04T21:10:36.410Z,17.85
2019-04-04T21:13:09.991Z,17.10
2019-04-04T21:15:44.167Z,16.42
2019-04-04T21:18:18.262Z,16.07
2019-04-04T21:20:51.752Z,15.93
2019-04-04T21:23:25.329Z,14.65
2019-04-04T21:25:58.631Z,15.18
2019-04-04T21:28:32.325Z,14.43
2019-04-04T21:31:05.545Z,13.40
2019-04-04T21:33:39.498Z,14.13
2019-04-04T21:36:13.449Z,14.13
2019-04-04T21:38:47.309Z,13.85
2019-04-04T21:41:21.234Z,13.40
2019-04-04T21:44:07.749Z,13.90
2019-04-04T21:46:30.673Z,15.68
2019-04-04T21:49:04.114Z,15.03
2019-04-04T21:51:38.211Z,15.32
2019-04-04T21:54:12.299Z,15.83
2019-04-04T21:56:46.219Z,15.53
2019-04-04T21:59:19.847Z,15.93
2019-04-04T22:01:53.364Z,16.85
2019-04-04T22:04:26.668Z,16.60
2019-04-04T22:07:00.138Z,17.23
2019-04-04T22:09:34.555Z,17.35
2019-04-04T22:12:08.592Z,17.50
2019-04-04T22:14:42.196Z,17.70
2019-04-04T22:17:16.212Z,17.62
2019-04-04T22:19:50.439Z,17.32
2019-04-04T22:22:24.709Z,19.20
2019-04-04T22:24:59.153Z,18.32
2019-04-04T22:27:32.780Z,20.08
2019-04-04T22:30:07.023Z,19.40
2019-04-04T22:32:40.993Z,20.10
2019-04-04T22:35:14.373Z,20.37
2019-04-04T22:37:47.439Z,20.52
2019-04-04T22:40:20.560Z,21.15
2019-04-04T22:42:54.061Z,20.27
2019-04-04T22:45:28.105Z,21.05
2019-04-04T22:48:02.120Z,21.80
2019-04-04T22:50:35.900Z,21.12
2019-04-04T22:53:09.491Z,21.75
2019-04-04T22:55:43.336Z,22.35
2019-04-04T22:58:27.616Z,22.52
2019-04-04T23:00:52.424Z,22.15
2019-04-04T23:03:27.212Z,22.67
2019-04-04T23:06:00.881Z,23.67
2019-04-04T23:08:34.383Z,22.40
2019-04-04T23:11:08.512Z,22.60
2019-04-04T23:13:42.436Z,22.15
2019-04-04T23:16:16.162Z,21.90
2019-04-04T23:18:50.184Z,22.85
2019-04-04T23:21:23.224Z,22.20
2019-04-04T23:23:57.327Z,21.15
2019-04-04T23:26:31.112Z,21.75
2019-04-04T23:29:04.680Z,21.45
2019-04-04T23:31:38.957Z,22.77
2019-04-04T23:34:12.604Z,20.77
2019-04-04T23:36:46.191Z,21.17
2019-04-04T23:39:19.944Z,21.02
2019-04-04T23:41:53.969Z,22.22
2019-04-04T23:44:28.002Z,22.95
2019-04-04T23:47:01.808Z,21.93
2019-04-04T23:49:35.363Z,22.65
2019-04-04T23:52:09.513Z,23.15
2019-04-04T23:54:43.629Z,24.40
2019-04-04T23:57:17.871Z,24.15
2019-04-04T23:59:51.754Z,23.80
